createdAt,value
2023-06-29T00:00:51.925Z,7.30
2023-06-29T00:03:12.960Z,7.20
2023-06-29T00:05:33.922Z,6.88
2023-06-29T00:07:54.681Z,7.38
2023-06-29T00:10:15.089Z,7.00
2023-06-29T00:12:36.132Z,6.85
2023-06-29T00:14:56.592Z,7.10
2023-06-29T00:17:17.712Z,8.73
2023-06-29T00:19:38.469Z,8.45
2023-06-29T00:21:59.176Z,6.63
2023-06-29T00:24:19.584Z,6.95
2023-06-29T00:26:41.091Z,8.15
2023-06-29T00:29:01.811Z,8.45
2023-06-29T00:31:25.199Z,7.90
2023-06-29T00:33:46.047Z,6.50
2023-06-29T00:36:06.472Z,9.07
2023-06-29T00:38:26.943Z,7.47
2023-06-29T00:40:49.348Z,8.07
2023-06-29T00:43:10.095Z,8.25
2023-06-29T00:45:31.082Z,7.90
2023-06-29T00:47:52.612Z,8.25
2023-06-29T00:50:14.264Z,7.03
2023-06-29T00:52:35.947Z,6.80
2023-06-29T00:54:57.626Z,6.65
2023-06-29T00:57:18.381Z,7.57
2023-06-29T00:59:38.903Z,6.35
2023-06-29T01:01:59.802Z,8.35
2023-06-29T01:04:26.122Z,7.05
2023-06-29T01:07:05.863Z,8.88
2023-06-29T01:09:27.412Z,7.93
2023-06-29T01:11:50.308Z,9.10
2023-06-29T01:14:14.923Z,8.30
2023-06-29T01:16:36.997Z,8.15
2023-06-29T01:18:58.459Z,8.10
2023-06-29T01:21:19.913Z,7.10
2023-06-29T01:23:41.303Z,7.95
2023-06-29T01:26:02.110Z,7.57
2023-06-29T01:28:23.160Z,8.35
2023-06-29T01:30:50.688Z,7.57
2023-06-29T01:33:12.288Z,8.93
2023-06-29T01:35:33.413Z,8.10
2023-06-29T01:38:03.145Z,7.43
2023-06-29T01:40:29.236Z,7.40
2023-06-29T01:42:51.378Z,7.43
2023-06-29T01:45:13.242Z,7.95
2023-06-29T01:47:35.005Z,11.43
2023-06-29T01:49:56.506Z,8.85
2023-06-29T01:52:17.480Z,9.88
2023-06-29T01:54:38.128Z,7.75
2023-06-29T01:56:59.124Z,8.68
2023-06-29T01:59:19.819Z,9.07
2023-06-29T02:01:40.302Z,8.23
2023-06-29T02:04:00.848Z,7.82
2023-06-29T02:06:21.236Z,8.73
2023-06-29T02:08:43.586Z,7.20
2023-06-29T02:11:04.708Z,9.07
2023-06-29T02:13:25.502Z,9.45
2023-06-29T02:15:46.365Z,7.85
2023-06-29T02:18:07.028Z,7.90
2023-06-29T02:20:27.335Z,9.38
2023-06-29T02:22:47.723Z,9.07
2023-06-29T02:25:11.756Z,6.97
2023-06-29T02:27:32.286Z,12.15
2023-06-29T02:29:52.766Z,8.52
2023-06-29T02:32:13.184Z,9.32
2023-06-29T02:34:33.562Z,6.95
2023-06-29T02:36:54.272Z,8.40
2023-06-29T02:39:15.054Z,8.30
2023-06-29T02:41:35.461Z,8.75
2023-06-29T02:43:55.862Z,8.32
2023-06-29T02:46:17.157Z,6.70
2023-06-29T02:48:37.816Z,7.65
2023-06-29T02:50:58.259Z,9.63
2023-06-29T02:53:18.802Z,8.57
2023-06-29T02:55:39.314Z,7.70
2023-06-29T02:57:59.810Z,7.22
2023-06-29T03:00:20.412Z,8.07
2023-06-29T03:02:40.753Z,8.38
2023-06-29T03:05:01.417Z,8.15
2023-06-29T03:07:21.897Z,7.53
2023-06-29T03:09:42.537Z,7.95
2023-06-29T03:12:02.916Z,7.80
2023-06-29T03:14:23.525Z,7.72
2023-06-29T03:16:44.239Z,8.98
2023-06-29T03:19:05.137Z,9.25
2023-06-29T03:21:25.449Z,8.32
2023-06-29T03:23:45.793Z,9.27
2023-06-29T03:26:06.312Z,12.55
2023-06-29T03:28:26.802Z,7.85
2023-06-29T03:30:47.339Z,8.05
2023-06-29T03:33:08.187Z,8.00
2023-06-29T03:35:29.035Z,7.97
2023-06-29T03:37:49.715Z,8.98
2023-06-29T03:40:10.774Z,8.38
2023-06-29T03:42:31.115Z,6.93
2023-06-29T03:44:51.465Z,8.80
2023-06-29T03:47:11.940Z,7.68
2023-06-29T03:49:32.475Z,8.52
2023-06-29T03:51:52.988Z,8.68
2023-06-29T03:54:13.383Z,8.23
2023-06-29T03:56:34.071Z,9.13
2023-06-29T03:58:54.814Z,7.20
2023-06-29T04:01:15.122Z,7.85
2023-06-29T04:03:35.547Z,9.50
2023-06-29T04:05:56.415Z,8.98
2023-06-29T04:08:16.969Z,7.28
2023-06-29T04:10:37.411Z,8.15
2023-06-29T04:12:58.218Z,7.93
2023-06-29T04:15:18.665Z,8.18
2023-06-29T04:17:39.036Z,8.35
2023-06-29T04:19:59.432Z,9.68
2023-06-29T04:22:19.730Z,8.65
2023-06-29T04:24:40.091Z,9.70
2023-06-29T04:27:01.487Z,7.93
2023-06-29T04:29:22.449Z,7.72
2023-06-29T04:31:42.978Z,8.32
2023-06-29T04:34:03.901Z,7.68
2023-06-29T04:36:25.643Z,9.18
2023-06-29T04:38:47.125Z,10.93
2023-06-29T04:41:08.341Z,8.60
2023-06-29T04:43:28.755Z,10.20
2023-06-29T04:45:49.342Z,7.47
2023-06-29T04:48:10.961Z,8.23
2023-06-29T04:50:36.502Z,7.72
2023-06-29T04:55:18.803Z,7.25
2023-06-29T04:57:39.472Z,7.43
2023-06-29T05:00:00.101Z,8.20
2023-06-29T05:02:20.431Z,9.30
2023-06-29T05:04:40.821Z,8.13
2023-06-29T05:07:01.302Z,8.98
2023-06-29T05:09:21.904Z,11.95
2023-06-29T05:11:42.878Z,7.97
2023-06-29T05:14:03.410Z,9.27
2023-06-29T05:16:23.975Z,10.00
2023-06-29T05:18:44.427Z,7.18
2023-06-29T05:21:05.133Z,7.43
2023-06-29T05:23:25.792Z,7.47
2023-06-29T05:25:46.928Z,8.45
2023-06-29T05:28:07.498Z,6.78
2023-06-29T05:30:28.105Z,6.95
2023-06-29T05:32:48.710Z,7.35
2023-06-29T05:35:09.520Z,8.63
2023-06-29T05:37:34.634Z,6.82
2023-06-29T05:39:56.664Z,8.07
2023-06-29T05:42:17.361Z,6.30
2023-06-29T05:44:37.596Z,8.45
2023-06-29T05:46:57.993Z,6.60
2023-06-29T05:49:18.391Z,8.15
2023-06-29T05:51:38.649Z,8.10
2023-06-29T05:53:59.174Z,8.75
2023-06-29T05:56:20.204Z,9.68
2023-06-29T05:58:40.609Z,7.63
2023-06-29T06:01:02.248Z,8.07
2023-06-29T06:03:24.671Z,6.80
2023-06-29T06:05:45.633Z,8.43
2023-06-29T06:08:05.945Z,6.82
2023-06-29T06:10:26.466Z,6.95
2023-06-29T06:12:47.117Z,7.22
2023-06-29T06:15:12.059Z,7.10
2023-06-29T06:17:32.900Z,7.82
2023-06-29T06:19:55.574Z,7.55
2023-06-29T06:22:16.441Z,5.88
2023-06-29T06:24:37.613Z,7.43
2023-06-29T06:26:58.351Z,8.20
2023-06-29T06:29:18.701Z,7.22
2023-06-29T06:31:39.313Z,5.93
2023-06-29T06:34:00.245Z,5.78
2023-06-29T06:36:21.532Z,6.53
2023-06-29T06:38:49.962Z,9.55
2023-06-29T06:41:11.912Z,7.38
2023-06-29T06:43:32.444Z,6.03
2023-06-29T06:45:53.805Z,7.28
2023-06-29T06:48:14.490Z,5.72
2023-06-29T06:50:35.207Z,6.57
2023-06-29T06:52:55.710Z,6.65
2023-06-29T06:55:16.708Z,6.68
2023-06-29T06:57:37.755Z,7.60
2023-06-29T06:59:58.119Z,8.32
2023-06-29T07:02:18.761Z,7.15
2023-06-29T07:04:39.829Z,6.50
2023-06-29T07:07:00.412Z,7.15
2023-06-29T07:09:21.024Z,6.78
2023-06-29T07:11:41.937Z,5.85
2023-06-29T07:14:02.673Z,6.40
2023-06-29T07:16:25.917Z,5.88
2023-06-29T07:21:31.826Z,7.10
2023-06-29T07:26:15.881Z,6.55
2023-06-29T07:28:36.426Z,5.70
2023-06-29T07:30:57.214Z,7.82
2023-06-29T07:33:18.219Z,6.28
2023-06-29T07:35:38.829Z,7.75
2023-06-29T07:37:59.364Z,6.30
2023-06-29T07:40:21.076Z,6.03
2023-06-29T07:42:41.865Z,6.15
2023-06-29T07:45:02.571Z,5.20
2023-06-29T07:47:24.096Z,5.03
2023-06-29T07:49:44.998Z,4.50
2023-06-29T07:52:05.890Z,5.07
2023-06-29T07:54:28.240Z,5.60
2023-06-29T07:59:12.534Z,5.53
2023-06-29T08:01:35.401Z,5.60
2023-06-29T08:04:02.581Z,5.53
2023-06-29T08:08:48.210Z,6.13
2023-06-29T08:11:13.490Z,5.68
2023-06-29T08:13:34.073Z,4.35
2023-06-29T08:15:54.650Z,5.05
2023-06-29T08:18:14.987Z,5.22
2023-06-29T08:20:35.468Z,4.80
2023-06-29T08:22:56.483Z,4.80
2023-06-29T08:25:17.322Z,5.97
2023-06-29T08:27:37.829Z,6.80
2023-06-29T08:29:57.994Z,6.07
2023-06-29T08:32:18.803Z,5.78
2023-06-29T08:34:39.636Z,5.72
2023-06-29T08:37:00.091Z,5.13
2023-06-29T08:39:20.776Z,4.65
2023-06-29T08:41:41.577Z,5.68
2023-06-29T08:44:05.278Z,5.68
2023-06-29T08:46:28.449Z,4.68
2023-06-29T08:48:49.878Z,5.85
2023-06-29T08:51:11.830Z,5.20
2023-06-29T08:53:32.875Z,4.60
2023-06-29T08:55:54.491Z,4.70
2023-06-29T08:58:15.243Z,4.75
2023-06-29T09:00:37.255Z,5.57
2023-06-29T09:02:57.772Z,5.53
2023-06-29T09:05:18.462Z,5.10
2023-06-29T09:07:42.230Z,5.35
2023-06-29T09:10:05.531Z,5.22
2023-06-29T09:12:28.676Z,7.47
2023-06-29T09:14:49.468Z,4.95
2023-06-29T09:17:15.633Z,6.38
2023-06-29T09:19:36.023Z,5.35
2023-06-29T09:21:58.135Z,4.32
2023-06-29T09:24:19.534Z,5.93
2023-06-29T09:26:40.330Z,4.85
2023-06-29T09:29:01.974Z,4.97
2023-06-29T09:31:22.804Z,6.07
2023-06-29T09:33:43.328Z,4.60
2023-06-29T09:36:09.528Z,4.82
2023-06-29T09:38:31.130Z,5.88
2023-06-29T09:40:53.437Z,4.72
2023-06-29T09:43:22.421Z,5.32
2023-06-29T09:45:43.072Z,6.32
2023-06-29T09:50:28.172Z,4.55
2023-06-29T09:52:54.878Z,5.22
2023-06-29T09:55:17.045Z,4.10
2023-06-29T09:57:40.426Z,5.25
2023-06-29T10:00:02.166Z,5.82
2023-06-29T10:02:22.585Z,4.65
2023-06-29T10:04:43.527Z,4.50
2023-06-29T10:07:13.162Z,5.55
2023-06-29T10:09:39.139Z,5.75
2023-06-29T10:12:00.893Z,5.15
2023-06-29T10:14:23.156Z,4.68
2023-06-29T10:16:47.213Z,5.20
2023-06-29T10:19:16.521Z,5.60
2023-06-29T10:21:37.537Z,5.20
2023-06-29T10:23:58.838Z,4.25
2023-06-29T10:26:19.665Z,4.72
2023-06-29T10:28:41.244Z,4.78
2023-06-29T10:31:01.639Z,4.30
2023-06-29T10:33:26.279Z,3.63
2023-06-29T10:36:02.675Z,4.70
2023-06-29T10:38:28.553Z,5.10
2023-06-29T10:40:50.104Z,4.65
2023-06-29T10:43:10.468Z,4.85
2023-06-29T10:45:32.178Z,5.70
2023-06-29T10:48:01.849Z,5.60
2023-06-29T10:50:41.511Z,5.15
2023-06-29T10:53:04.390Z,6.45
2023-06-29T10:55:27.112Z,4.85
2023-06-29T10:57:49.680Z,6.13
2023-06-29T11:00:10.658Z,4.80
2023-06-29T11:02:32.038Z,4.85
2023-06-29T11:04:53.458Z,5.32
2023-06-29T11:07:15.210Z,5.45
2023-06-29T11:09:35.956Z,5.97
2023-06-29T11:11:56.629Z,5.05
2023-06-29T11:14:18.466Z,5.30
2023-06-29T11:16:40.442Z,5.03
2023-06-29T11:19:04.288Z,4.72
2023-06-29T11:21:28.192Z,5.80
2023-06-29T11:23:52.464Z,5.93
2023-06-29T11:26:13.061Z,4.63
2023-06-29T11:28:34.154Z,4.78
2023-06-29T11:30:56.312Z,4.18
2023-06-29T11:33:33.750Z,4.25
2023-06-29T11:35:56.463Z,4.15
2023-06-29T11:38:17.084Z,5.85
2023-06-29T11:40:38.010Z,4.63
2023-06-29T11:42:58.506Z,6.78
2023-06-29T11:45:19.445Z,4.68
2023-06-29T11:47:39.977Z,7.65
2023-06-29T11:50:01.724Z,4.97
2023-06-29T11:52:22.973Z,5.22
2023-06-29T11:54:44.350Z,6.30
2023-06-29T11:57:05.333Z,5.28
2023-06-29T11:59:27.921Z,4.70
2023-06-29T12:01:48.557Z,4.95
2023-06-29T12:04:10.430Z,5.10
2023-06-29T12:06:31.131Z,4.20
2023-06-29T12:08:52.585Z,5.10
2023-06-29T12:11:20.492Z,4.85
2023-06-29T12:13:46.841Z,5.63
2023-06-29T12:18:36.498Z,5.55
2023-06-29T12:21:02.077Z,5.75
2023-06-29T12:23:23.224Z,5.65
2023-06-29T12:25:47.388Z,5.50
2023-06-29T12:28:08.156Z,5.90
2023-06-29T12:30:28.740Z,5.70
2023-06-29T12:32:50.391Z,5.00
2023-06-29T12:35:12.759Z,5.22
2023-06-29T12:37:33.468Z,4.85
2023-06-29T12:39:55.417Z,5.53
2023-06-29T12:42:16.057Z,6.82
2023-06-29T12:44:37.371Z,5.85
2023-06-29T12:46:57.862Z,6.25
2023-06-29T12:49:18.657Z,6.35
2023-06-29T12:51:39.038Z,5.90
2023-06-29T12:53:59.373Z,5.35
2023-06-29T12:56:20.627Z,4.68
2023-06-29T12:58:41.522Z,6.03
2023-06-29T13:01:01.956Z,4.78
2023-06-29T13:03:22.971Z,5.88
2023-06-29T13:05:43.859Z,5.70
2023-06-29T13:08:04.993Z,5.22
2023-06-29T13:10:25.649Z,5.88
2023-06-29T13:12:46.039Z,5.70
2023-06-29T13:15:07.349Z,5.93
2023-06-29T13:17:27.948Z,5.20
2023-06-29T13:19:49.318Z,4.80
2023-06-29T13:22:10.447Z,4.97
2023-06-29T13:24:31.413Z,6.15
2023-06-29T13:26:52.018Z,4.75
2023-06-29T13:29:12.487Z,4.78
2023-06-29T13:31:33.346Z,6.70
2023-06-29T13:33:53.914Z,5.80
2023-06-29T13:36:14.293Z,5.03
2023-06-29T13:38:34.608Z,6.00
2023-06-29T13:40:55.102Z,5.88
2023-06-29T13:43:15.321Z,3.85
2023-06-29T13:45:35.630Z,4.50
2023-06-29T13:48:00.780Z,5.22
2023-06-29T13:50:25.500Z,4.70
2023-06-29T13:52:49.289Z,3.55
2023-06-29T13:55:09.647Z,4.35
2023-06-29T13:57:30.079Z,4.93
2023-06-29T13:59:50.592Z,4.45
2023-06-29T14:02:11.360Z,4.25
2023-06-29T14:04:32.263Z,5.88
2023-06-29T14:06:53.251Z,5.38
2023-06-29T14:09:14.834Z,4.97
2023-06-29T14:11:35.498Z,4.90
2023-06-29T14:13:58.323Z,5.28
2023-06-29T14:16:19.134Z,4.82
2023-06-29T14:18:39.876Z,4.30
2023-06-29T14:21:00.690Z,4.80
2023-06-29T14:23:25.528Z,5.05
2023-06-29T14:25:46.566Z,5.88
2023-06-29T14:28:07.525Z,4.85
2023-06-29T14:30:28.033Z,5.05
2023-06-29T14:32:51.223Z,5.43
2023-06-29T14:35:12.607Z,4.82
2023-06-29T14:37:50.639Z,4.97
2023-06-29T14:40:11.444Z,5.50
2023-06-29T14:42:32.178Z,5.55
2023-06-29T14:44:52.521Z,6.50
2023-06-29T14:47:13.080Z,6.68
2023-06-29T14:49:33.619Z,6.45
2023-06-29T14:51:53.984Z,5.60
2023-06-29T14:54:14.446Z,6.03
2023-06-29T14:56:36.114Z,5.28
2023-06-29T14:58:56.513Z,6.78
2023-06-29T15:01:17.473Z,5.13
2023-06-29T15:03:39.807Z,4.82
2023-06-29T15:06:00.570Z,7.80
2023-06-29T15:08:21.055Z,5.07
2023-06-29T15:10:41.381Z,4.88
2023-06-29T15:13:01.733Z,5.43
2023-06-29T15:15:23.536Z,5.82
2023-06-29T15:17:44.378Z,5.05
2023-06-29T15:20:05.991Z,5.10
2023-06-29T15:22:26.419Z,4.70
2023-06-29T15:24:46.858Z,5.75
2023-06-29T15:27:07.403Z,5.70
2023-06-29T15:29:28.078Z,5.10
2023-06-29T15:31:48.376Z,5.47
2023-06-29T15:34:09.262Z,6.45
2023-06-29T15:36:29.595Z,5.68
2023-06-29T15:38:50.501Z,7.72
2023-06-29T15:41:11.162Z,7.40
2023-06-29T15:43:32.307Z,5.25
2023-06-29T15:45:53.674Z,5.57
2023-06-29T15:48:15.766Z,4.88
2023-06-29T15:50:36.733Z,5.28
2023-06-29T15:52:57.537Z,5.13
2023-06-29T15:55:18.648Z,4.88
2023-06-29T15:57:39.603Z,5.47
2023-06-29T16:00:01.104Z,5.72
2023-06-29T16:02:22.041Z,4.70
2023-06-29T16:04:42.664Z,5.53
2023-06-29T16:07:07.654Z,4.72
2023-06-29T16:11:52.736Z,5.45
2023-06-29T16:14:13.162Z,5.10
2023-06-29T16:16:33.560Z,5.00
2023-06-29T16:18:54.475Z,4.82
2023-06-29T16:21:15.282Z,5.57
2023-06-29T16:23:37.932Z,5.60
2023-06-29T16:25:58.540Z,5.72
2023-06-29T16:28:19.155Z,5.00
2023-06-29T16:30:39.818Z,6.18
2023-06-29T16:33:00.822Z,5.68
2023-06-29T16:35:21.484Z,5.80
2023-06-29T16:37:44.464Z,6.53
2023-06-29T16:40:06.027Z,5.22
2023-06-29T16:42:26.838Z,5.70
2023-06-29T16:44:47.383Z,4.55
2023-06-29T16:47:07.970Z,6.85
2023-06-29T16:49:28.783Z,5.63
2023-06-29T16:51:49.391Z,4.90
2023-06-29T16:54:09.780Z,6.80
2023-06-29T16:56:30.353Z,5.03
2023-06-29T16:58:51.119Z,5.80
2023-06-29T17:01:11.919Z,5.47
2023-06-29T17:03:32.750Z,5.30
2023-06-29T17:05:53.774Z,4.72
2023-06-29T17:08:14.625Z,5.35
2023-06-29T17:10:35.194Z,4.90
2023-06-29T17:12:55.677Z,4.88
2023-06-29T17:15:16.251Z,4.70
2023-06-29T17:17:36.788Z,5.18
2023-06-29T17:19:58.475Z,4.90
2023-06-29T17:22:20.152Z,5.10
2023-06-29T17:24:41.273Z,5.50
2023-06-29T17:27:02.211Z,5.43
2023-06-29T17:29:23.258Z,5.15
2023-06-29T17:31:44.163Z,4.63
2023-06-29T17:34:05.150Z,6.82
2023-06-29T17:36:27.826Z,4.95
2023-06-29T17:38:48.531Z,5.45
2023-06-29T17:41:10.337Z,5.65
2023-06-29T17:43:31.876Z,5.00
2023-06-29T17:45:52.546Z,5.50
2023-06-29T17:48:13.016Z,5.60
2023-06-29T17:50:33.821Z,5.95
2023-06-29T17:52:54.260Z,4.63
2023-06-29T17:55:17.049Z,4.93
2023-06-29T17:57:38.008Z,5.43
2023-06-29T17:59:58.728Z,6.20
2023-06-29T18:02:19.977Z,4.88
2023-06-29T18:04:40.942Z,6.03
2023-06-29T18:07:01.744Z,4.93
2023-06-29T18:09:22.316Z,7.20
2023-06-29T18:11:43.332Z,5.78
2023-06-29T18:14:03.825Z,5.53
2023-06-29T18:16:25.020Z,6.47
2023-06-29T18:18:45.872Z,6.75
2023-06-29T18:21:06.931Z,5.47
2023-06-29T18:23:27.585Z,5.70
2023-06-29T18:25:48.333Z,6.47
2023-06-29T18:28:09.289Z,6.78
2023-06-29T18:30:29.851Z,6.22
2023-06-29T18:32:51.302Z,6.45
2023-06-29T18:35:12.659Z,6.72
2023-06-29T18:37:33.430Z,5.05
2023-06-29T18:39:54.018Z,5.40
2023-06-29T18:42:17.643Z,6.45
2023-06-29T18:44:38.610Z,5.65
2023-06-29T18:47:13.628Z,5.53
2023-06-29T18:49:49.830Z,5.30
2023-06-29T18:52:11.952Z,5.90
2023-06-29T18:54:34.575Z,4.88
2023-06-29T18:56:55.179Z,5.22
2023-06-29T18:59:16.076Z,5.55
2023-06-29T19:01:37.020Z,4.10
2023-06-29T19:03:57.832Z,5.13
2023-06-29T19:06:18.741Z,5.38
2023-06-29T19:08:39.125Z,5.40
2023-06-29T19:11:00.037Z,5.40
2023-06-29T19:13:20.541Z,6.07
2023-06-29T19:15:41.845Z,6.93
2023-06-29T19:18:02.838Z,4.97
2023-06-29T19:20:23.856Z,5.68
2023-06-29T19:22:44.978Z,5.28
2023-06-29T19:25:07.800Z,5.90
2023-06-29T19:27:28.266Z,6.35
2023-06-29T19:29:49.109Z,5.72
2023-06-29T19:32:10.303Z,6.00
2023-06-29T19:34:32.100Z,4.80
2023-06-29T19:36:52.691Z,4.20
2023-06-29T19:39:13.403Z,6.30
2023-06-29T19:41:33.711Z,5.20
2023-06-29T19:43:54.010Z,5.38
2023-06-29T19:46:14.410Z,4.95
2023-06-29T19:48:35.166Z,5.97
2023-06-29T19:50:55.776Z,5.03
2023-06-29T19:53:16.561Z,5.95
2023-06-29T19:55:37.267Z,5.63
2023-06-29T19:57:58.582Z,8.23
2023-06-29T20:00:19.660Z,5.55
2023-06-29T20:02:40.266Z,5.43
2023-06-29T20:05:01.173Z,6.78
2023-06-29T20:07:21.676Z,6.65
2023-06-29T20:09:42.643Z,6.00
2023-06-29T20:12:03.463Z,5.57
2023-06-29T20:14:24.295Z,5.75
2023-06-29T20:16:44.850Z,7.20
2023-06-29T20:19:05.345Z,8.50
2023-06-29T20:21:25.663Z,6.75
2023-06-29T20:23:51.409Z,6.10
2023-06-29T20:26:12.502Z,6.25
2023-06-29T20:28:32.960Z,6.50
2023-06-29T20:30:54.049Z,5.43
2023-06-29T20:33:14.501Z,7.07
2023-06-29T20:35:35.277Z,5.47
2023-06-29T20:37:58.845Z,5.60
2023-06-29T20:40:19.238Z,5.90
2023-06-29T20:42:39.964Z,6.82
2023-06-29T20:45:02.645Z,6.22
2023-06-29T20:47:24.409Z,5.95
2023-06-29T20:49:45.184Z,6.18
2023-06-29T20:52:06.276Z,6.60
2023-06-29T20:54:28.166Z,7.53
2023-06-29T20:56:48.516Z,6.30
2023-06-29T20:59:08.935Z,6.38
2023-06-29T21:01:29.454Z,6.43
2023-06-29T21:03:50.356Z,6.63
2023-06-29T21:06:11.521Z,7.88
2023-06-29T21:08:31.948Z,8.23
2023-06-29T21:10:52.367Z,7.28
2023-06-29T21:13:13.191Z,6.97
2023-06-29T21:15:34.012Z,8.10
2023-06-29T21:17:55.596Z,7.95
2023-06-29T21:20:16.636Z,7.15
2023-06-29T21:22:37.673Z,8.52
2023-06-29T21:24:58.381Z,8.40
2023-06-29T21:27:19.825Z,8.43
2023-06-29T21:29:44.434Z,6.95
2023-06-29T21:32:09.776Z,7.00
2023-06-29T21:34:31.719Z,6.70
2023-06-29T21:36:52.671Z,7.75
2023-06-29T21:39:13.353Z,8.43
2023-06-29T21:41:33.718Z,7.95
2023-06-29T21:43:54.090Z,7.38
2023-06-29T21:46:14.381Z,8.30
2023-06-29T21:48:37.056Z,11.25
2023-06-29T21:50:57.917Z,7.72
2023-06-29T21:53:18.437Z,7.88
2023-06-29T21:55:38.667Z,8.60
2023-06-29T21:57:59.008Z,8.70
2023-06-29T22:00:19.690Z,8.55
2023-06-29T22:02:40.771Z,6.95
2023-06-29T22:05:01.209Z,7.68
2023-06-29T22:07:21.624Z,9.50
2023-06-29T22:09:42.039Z,7.93
2023-06-29T22:12:03.290Z,7.03
2023-06-29T22:14:24.427Z,6.30
2023-06-29T22:16:45.032Z,7.80
2023-06-29T22:19:10.566Z,7.13
2023-06-29T22:21:31.475Z,7.28
2023-06-29T22:23:53.390Z,7.22
2023-06-29T22:26:14.192Z,7.00
2023-06-29T22:28:34.722Z,6.57
2023-06-29T22:30:55.271Z,6.43
2023-06-29T22:33:16.059Z,6.63
2023-06-29T22:35:36.848Z,7.70
2023-06-29T22:37:58.206Z,6.30
2023-06-29T22:40:19.170Z,6.60
2023-06-29T22:42:40.099Z,5.75
2023-06-29T22:45:00.525Z,6.80
2023-06-29T22:47:22.428Z,6.82
2023-06-29T22:49:43.478Z,6.53
2023-06-29T22:52:04.447Z,6.97
2023-06-29T22:54:24.903Z,7.32
2023-06-29T22:56:45.334Z,6.35
2023-06-29T22:59:10.078Z,6.25
2023-06-29T23:01:30.841Z,6.82
2023-06-29T23:03:51.682Z,6.80
2023-06-29T23:06:12.576Z,6.57
2023-06-29T23:08:33.446Z,6.85
2023-06-29T23:10:53.751Z,7.85
2023-06-29T23:13:17.468Z,8.13
2023-06-29T23:15:43.251Z,7.07
2023-06-29T23:18:04.626Z,7.03
2023-06-29T23:20:27.272Z,7.43
2023-06-29T23:22:48.270Z,8.30
2023-06-29T23:25:10.239Z,6.35
2023-06-29T23:27:30.850Z,7.63
2023-06-29T23:29:54.037Z,8.55
2023-06-29T23:32:14.680Z,8.50
2023-06-29T23:34:35.061Z,9.05
2023-06-29T23:36:55.537Z,7.45
2023-06-29T23:39:16.937Z,7.03
2023-06-29T23:41:37.488Z,7.20
2023-06-29T23:44:07.468Z,7.50
2023-06-29T23:46:28.037Z,7.75
2023-06-29T23:48:48.939Z,7.70
2023-06-29T23:51:10.089Z,7.57
2023-06-29T23:53:30.897Z,10.15
2023-06-29T23:55:51.432Z,8.35
2023-06-29T23:58:11.816Z,8.30
